sensor_id;sensor_type;location;lat;lon;timestamp;P1;durP1;ratioP1;P2;durP2;ratioP2
51664;SDS011;37751;52.408;12.536;2023-09-18T05:23:54;7.47;;;4.32;;
51664;SDS011;37751;52.408;12.536;2023-09-18T05:26:23;5.10;;;4.15;;
51664;SDS011;37751;52.408;12.536;2023-09-18T05:28:52;6.18;;;4.40;;
51664;SDS011;37751;52.408;12.536;2023-09-18T05:31:22;9.63;;;4.30;;
51664;SDS011;37751;52.408;12.536;2023-09-18T05:33:49;4.70;;;4.30;;
51664;SDS011;37751;52.408;12.536;2023-09-18T05:36:18;5.05;;;4.55;;
51664;SDS011;37751;52.408;12.536;2023-09-18T05:38:45;6.45;;;4.18;;
51664;SDS011;37751;52.408;12.536;2023-09-18T05:41:13;5.88;;;3.97;;
51664;SDS011;37751;52.408;12.536;2023-09-18T05:43:41;4.82;;;3.72;;
51664;SDS011;37751;52.408;12.536;2023-09-18T05:46:08;5.40;;;4.53;;
51664;SDS011;37751;52.408;12.536;2023-09-18T05:48:36;5.90;;;4.00;;
51664;SDS011;37751;52.408;12.536;2023-09-18T05:51:04;6.35;;;4.10;;
51664;SDS011;37751;52.408;12.536;2023-09-18T05:53:31;6.18;;;4.20;;
51664;SDS011;37751;52.408;12.536;2023-09-18T05:56:02;5.00;;;4.00;;
51664;SDS011;37751;52.408;12.536;2023-09-18T05:58:31;4.28;;;3.88;;
51664;SDS011;37751;52.408;12.536;2023-09-18T06:00:59;6.45;;;4.25;;
51664;SDS011;37751;52.408;12.536;2023-09-18T06:03:27;4.10;;;3.70;;
51664;SDS011;37751;52.408;12.536;2023-09-18T06:05:58;5.15;;;4.00;;
51664;SDS011;37751;52.408;12.536;2023-09-18T06:10:35;4.85;;;4.20;;
51664;SDS011;37751;52.408;12.536;2023-09-18T06:13:03;4.45;;;4.03;;
51664;SDS011;37751;52.408;12.536;2023-09-18T06:15:33;4.45;;;4.05;;
51664;SDS011;37751;52.408;12.536;2023-09-18T06:18:01;4.68;;;3.88;;
51664;SDS011;37751;52.408;12.536;2023-09-18T06:20:31;5.78;;;4.10;;
51664;SDS011;37751;52.408;12.536;2023-09-18T06:22:58;4.03;;;3.72;;
51664;SDS011;37751;52.408;12.536;2023-09-18T06:25:26;4.65;;;4.15;;
51664;SDS011;37751;52.408;12.536;2023-09-18T06:27:54;4.50;;;4.10;;
51664;SDS011;37751;52.408;12.536;2023-09-18T06:30:22;4.78;;;4.05;;
51664;SDS011;37751;52.408;12.536;2023-09-18T06:32:49;5.47;;;3.97;;
51664;SDS011;37751;52.408;12.536;2023-09-18T06:35:17;4.90;;;4.10;;
51664;SDS011;37751;52.408;12.536;2023-09-18T06:37:45;5.20;;;4.40;;
51664;SDS011;37751;52.408;12.536;2023-09-18T06:40:13;4.30;;;3.83;;
51664;SDS011;37751;52.408;12.536;2023-09-18T06:42:41;4.50;;;4.10;;
51664;SDS011;37751;52.408;12.536;2023-09-18T06:45:11;5.00;;;3.95;;
51664;SDS011;37751;52.408;12.536;2023-09-18T06:47:40;5.47;;;4.13;;
51664;SDS011;37751;52.408;12.536;2023-09-18T06:50:08;4.20;;;3.80;;
51664;SDS011;37751;52.408;12.536;2023-09-18T06:52:39;4.18;;;3.53;;
51664;SDS011;37751;52.408;12.536;2023-09-18T06:55:08;5.07;;;4.35;;
51664;SDS011;37751;52.408;12.536;2023-09-18T06:57:36;5.05;;;3.88;;
51664;SDS011;37751;52.408;12.536;2023-09-18T07:00:04;5.95;;;3.88;;
51664;SDS011;37751;52.408;12.536;2023-09-18T07:02:33;5.13;;;4.10;;
51664;SDS011;37751;52.408;12.536;2023-09-18T07:05:01;5.95;;;4.00;;
51664;SDS011;37751;52.408;12.536;2023-09-18T07:07:29;4.55;;;3.75;;
51664;SDS011;37751;52.408;12.536;2023-09-18T07:09:56;5.00;;;3.78;;
51664;SDS011;37751;52.408;12.536;2023-09-18T07:12:27;5.30;;;3.75;;
51664;SDS011;37751;52.408;12.536;2023-09-18T07:14:55;4.10;;;3.80;;
51664;SDS011;37751;52.408;12.536;2023-09-18T07:17:23;6.18;;;3.88;;
51664;SDS011;37751;52.408;12.536;2023-09-18T07:19:50;5.30;;;3.90;;
51664;SDS011;37751;52.408;12.536;2023-09-18T07:22:18;5.53;;;3.97;;
51664;SDS011;37751;52.408;12.536;2023-09-18T07:24:46;4.82;;;3.50;;
51664;SDS011;37751;52.408;12.536;2023-09-18T07:27:14;4.13;;;3.72;;
51664;SDS011;37751;52.408;12.536;2023-09-18T07:29:42;7.32;;;4.13;;
51664;SDS011;37751;52.408;12.536;2023-09-18T07:32:10;4.65;;;3.72;;
51664;SDS011;37751;52.408;12.536;2023-09-18T07:34:37;5.72;;;3.88;;
51664;SDS011;37751;52.408;12.536;2023-09-18T07:37:05;4.13;;;3.60;;
51664;SDS011;37751;52.408;12.536;2023-09-18T07:39:33;5.85;;;3.72;;
51664;SDS011;37751;52.408;12.536;2023-09-18T07:42:01;5.22;;;3.83;;
51664;SDS011;37751;52.408;12.536;2023-09-18T07:44:28;4.90;;;3.47;;
51664;SDS011;37751;52.408;12.536;2023-09-18T07:46:56;4.40;;;4.00;;
51664;SDS011;37751;52.408;12.536;2023-09-18T07:49:24;8.20;;;4.15;;
51664;SDS011;37751;52.408;12.536;2023-09-18T07:51:51;5.60;;;3.80;;
51664;SDS011;37751;52.408;12.536;2023-09-18T07:54:19;5.13;;;3.50;;
51664;SDS011;37751;52.408;12.536;2023-09-18T07:56:47;4.53;;;3.65;;
51664;SDS011;37751;52.408;12.536;2023-09-18T07:59:15;4.38;;;3.72;;
51664;SDS011;37751;52.408;12.536;2023-09-18T08:01:42;5.75;;;3.60;;
51664;SDS011;37751;52.408;12.536;2023-09-18T08:04:11;6.25;;;3.72;;
51664;SDS011;37751;52.408;12.536;2023-09-18T08:06:38;4.53;;;4.07;;
51664;SDS011;37751;52.408;12.536;2023-09-18T08:09:08;5.97;;;3.70;;
51664;SDS011;37751;52.408;12.536;2023-09-18T08:11:42;4.63;;;3.60;;
51664;SDS011;37751;52.408;12.536;2023-09-18T08:14:14;5.78;;;3.78;;
51664;SDS011;37751;52.408;12.536;2023-09-18T08:16:41;5.57;;;3.40;;
51664;SDS011;37751;52.408;12.536;2023-09-18T08:19:09;4.85;;;3.30;;
51664;SDS011;37751;52.408;12.536;2023-09-18T08:21:37;3.75;;;3.45;;
51664;SDS011;37751;52.408;12.536;2023-09-18T08:24:05;4.15;;;3.83;;
51664;SDS011;37751;52.408;12.536;2023-09-18T18:23:43;5.57;;;2.22;;
51664;SDS011;37751;52.408;12.536;2023-09-18T18:26:14;6.97;;;2.88;;
51664;SDS011;37751;52.408;12.536;2023-09-18T18:28:43;12.02;;;2.30;;
51664;SDS011;37751;52.408;12.536;2023-09-18T18:31:10;4.90;;;2.78;;
51664;SDS011;37751;52.408;12.536;2023-09-18T18:33:39;6.05;;;2.95;;
51664;SDS011;37751;52.408;12.536;2023-09-18T18:36:08;5.50;;;2.65;;
51664;SDS011;37751;52.408;12.536;2023-09-18T18:38:36;9.15;;;2.97;;
51664;SDS011;37751;52.408;12.536;2023-09-18T18:41:03;16.33;;;2.58;;
